createdAt,value
2018-08-12T00:01:23.170Z,47.30
2018-08-12T00:03:49.529Z,47.34
2018-08-12T00:06:15.908Z,47.37
2018-08-12T00:08:42.232Z,47.34
2018-08-12T00:11:08.569Z,47.33
2018-08-12T00:13:34.936Z,47.45
2018-08-12T00:16:01.300Z,47.48
2018-08-12T00:18:27.630Z,47.41
2018-08-12T00:20:53.988Z,47.38
2018-08-12T00:23:20.316Z,47.42
2018-08-12T00:25:46.699Z,47.41
2018-08-12T00:28:13.087Z,47.52
2018-08-12T00:30:39.488Z,47.44
2018-08-12T00:33:05.814Z,47.38
2018-08-12T00:35:32.156Z,47.38
2018-08-12T00:37:58.676Z,47.49
2018-08-12T00:40:25.056Z,47.43
2018-08-12T00:42:51.430Z,47.54
2018-08-12T00:45:17.777Z,47.46
2018-08-12T00:47:44.164Z,47.50
2018-08-12T00:50:10.566Z,47.47
2018-08-12T00:52:36.965Z,47.59
2018-08-12T00:55:03.398Z,47.60
2018-08-12T00:57:29.789Z,47.55
2018-08-12T00:59:56.147Z,47.67
2018-08-12T01:02:22.543Z,47.71
2018-08-12T01:04:48.883Z,47.70
2018-08-12T01:07:15.266Z,47.70
2018-08-12T01:09:41.597Z,47.85
2018-08-12T01:12:08.066Z,47.79
2018-08-12T01:14:34.424Z,47.85
2018-08-12T01:17:00.774Z,47.89
2018-08-12T01:19:27.175Z,47.87
2018-08-12T01:21:53.616Z,47.91
2018-08-12T01:24:20.011Z,47.94
2018-08-12T01:26:46.361Z,48.00
2018-08-12T01:29:12.702Z,48.03
2018-08-12T01:31:39.068Z,48.03
2018-08-12T01:34:05.449Z,48.02
2018-08-12T01:36:31.900Z,48.12
2018-08-12T01:38:58.248Z,48.22
2018-08-12T01:41:24.600Z,48.29
2018-08-12T01:43:50.937Z,48.24
2018-08-12T01:46:17.265Z,48.31
2018-08-12T01:48:43.637Z,48.52
2018-08-12T01:51:09.985Z,48.52
2018-08-12T01:53:36.340Z,48.45
2018-08-12T01:56:02.774Z,48.53
2018-08-12T01:58:29.155Z,48.54
2018-08-12T02:00:55.488Z,48.63
2018-08-12T02:03:21.873Z,48.62
2018-08-12T02:05:48.289Z,48.72
2018-08-12T02:08:14.628Z,48.60
2018-08-12T02:10:40.972Z,48.60
2018-08-12T02:13:07.542Z,48.62
2018-08-12T02:15:33.886Z,48.63
2018-08-12T02:18:00.235Z,48.77
2018-08-12T02:20:26.605Z,48.71
2018-08-12T02:22:53.008Z,48.76
2018-08-12T02:25:19.351Z,48.80
2018-08-12T02:27:45.744Z,48.86
2018-08-12T02:30:12.102Z,48.85
2018-08-12T02:32:38.473Z,48.95
2018-08-12T02:35:04.826Z,48.89
2018-08-12T02:37:31.182Z,48.89
2018-08-12T02:39:57.531Z,48.81
2018-08-12T02:42:23.888Z,48.91
2018-08-12T02:44:50.243Z,48.95
2018-08-12T02:47:16.594Z,48.90
2018-08-12T02:49:42.972Z,49.02
2018-08-12T02:52:09.310Z,48.95
2018-08-12T02:54:35.685Z,49.04
2018-08-12T02:57:02.095Z,49.05
2018-08-12T02:59:28.459Z,49.06
2018-08-12T03:01:54.869Z,49.10
2018-08-12T03:04:21.205Z,49.08
2018-08-12T03:06:47.605Z,49.19
2018-08-12T03:09:13.981Z,49.21
2018-08-12T03:11:40.337Z,49.26
2018-08-12T03:14:06.701Z,49.29
2018-08-12T03:16:33.089Z,49.29
2018-08-12T03:18:59.554Z,49.29
2018-08-12T03:21:25.888Z,49.36
2018-08-12T03:23:52.241Z,49.38
2018-08-12T03:26:18.619Z,49.50
2018-08-12T03:28:44.959Z,49.40
2018-08-12T03:31:11.318Z,49.50
2018-08-12T03:33:37.667Z,49.45
2018-08-12T03:36:04.018Z,49.44
2018-08-12T03:38:30.376Z,49.53
2018-08-12T03:40:56.746Z,49.64
2018-08-12T03:43:23.109Z,49.52
2018-08-12T03:45:49.450Z,49.53
2018-08-12T03:48:15.900Z,49.50
2018-08-12T03:50:42.305Z,49.46
2018-08-12T03:53:08.654Z,49.44
2018-08-12T03:55:34.993Z,49.44
2018-08-12T03:58:01.331Z,49.27
2018-08-12T04:00:27.733Z,49.36
2018-08-12T04:02:54.077Z,49.31
2018-08-12T04:05:20.437Z,49.24
2018-08-12T04:07:46.793Z,49.32
2018-08-12T04:10:13.191Z,49.28
2018-08-12T04:12:39.541Z,49.24
2018-08-12T04:15:05.926Z,49.24
2018-08-12T04:17:32.247Z,49.40
2018-08-12T04:19:58.644Z,49.34
2018-08-12T04:22:24.999Z,49.48
2018-08-12T04:24:51.390Z,49.39
2018-08-12T04:27:17.738Z,49.44
2018-08-12T04:29:44.124Z,49.58
2018-08-12T04:32:10.468Z,49.67
2018-08-12T04:34:36.832Z,49.54
2018-08-12T04:37:03.234Z,49.63
2018-08-12T04:39:29.623Z,49.66
2018-08-12T04:41:56.767Z,49.65
2018-08-12T04:44:23.180Z,49.71
2018-08-12T04:46:49.525Z,49.71
2018-08-12T04:49:15.944Z,49.76
2018-08-12T04:51:42.341Z,49.64
2018-08-12T04:54:08.743Z,49.72
2018-08-12T04:56:35.195Z,49.86
2018-08-12T04:59:01.526Z,49.89
2018-08-12T05:01:27.876Z,49.60
2018-08-12T05:03:54.299Z,49.63
2018-08-12T05:06:20.647Z,49.55
2018-08-12T05:08:46.994Z,49.52
2018-08-12T05:11:13.427Z,49.44
2018-08-12T05:13:39.763Z,49.47
2018-08-12T05:16:06.126Z,49.27
2018-08-12T05:18:32.532Z,49.41
2018-08-12T05:20:58.876Z,49.28
2018-08-12T05:23:25.292Z,49.31
2018-08-12T05:25:51.736Z,49.08
2018-08-12T05:28:18.114Z,49.16
2018-08-12T05:30:44.482Z,49.18
2018-08-12T05:33:10.892Z,49.19
2018-08-12T05:35:37.311Z,49.20
2018-08-12T05:38:03.696Z,49.12
2018-08-12T05:40:30.076Z,49.19
2018-08-12T05:42:56.411Z,49.14
2018-08-12T05:45:22.828Z,49.24
2018-08-12T05:47:49.185Z,49.13
2018-08-12T05:50:15.598Z,49.18
2018-08-12T05:52:42.034Z,49.21
2018-08-12T05:55:08.428Z,49.27
2018-08-12T05:57:34.937Z,49.28
2018-08-12T06:00:01.345Z,49.24
2018-08-12T06:02:27.730Z,49.27
2018-08-12T06:04:54.152Z,49.27
2018-08-12T06:07:20.519Z,49.31
2018-08-12T06:09:46.926Z,49.36
2018-08-12T06:12:13.254Z,49.29
2018-08-12T06:14:39.672Z,49.41
2018-08-12T06:17:06.046Z,49.43
2018-08-12T06:19:32.429Z,49.40
2018-08-12T06:21:58.786Z,49.31
2018-08-12T06:24:25.153Z,49.44
2018-08-12T06:26:51.544Z,49.53
2018-08-12T06:29:17.863Z,49.56
2018-08-12T06:31:44.256Z,49.49
2018-08-12T06:34:10.633Z,49.73
2018-08-12T06:36:37.127Z,49.60
2018-08-12T06:39:03.489Z,49.68
2018-08-12T06:41:29.892Z,49.60
2018-08-12T06:43:56.249Z,49.71
2018-08-12T06:46:22.724Z,49.85
2018-08-12T06:48:49.068Z,49.79
2018-08-12T06:51:15.489Z,49.80
2018-08-12T06:53:41.893Z,49.80
2018-08-12T06:56:08.310Z,49.82
2018-08-12T06:58:34.703Z,49.89
2018-08-12T07:01:01.137Z,49.91
2018-08-12T07:03:27.537Z,50.00
2018-08-12T07:05:53.912Z,50.14
2018-08-12T07:08:20.307Z,50.16
2018-08-12T07:10:46.661Z,50.22
2018-08-12T07:13:13.051Z,50.30
2018-08-12T07:15:39.417Z,50.37
2018-08-12T07:18:05.851Z,50.27
2018-08-12T07:20:32.235Z,50.29
2018-08-12T07:22:58.602Z,50.34
2018-08-12T07:25:25.018Z,50.35
2018-08-12T07:27:51.353Z,50.43
2018-08-12T07:30:17.772Z,50.50
2018-08-12T07:32:44.250Z,50.53
2018-08-12T07:35:10.640Z,50.56
2018-08-12T07:37:37.039Z,50.69
2018-08-12T07:40:03.414Z,50.76
2018-08-12T07:42:29.767Z,50.67
2018-08-12T07:44:56.264Z,50.86
2018-08-12T07:47:22.602Z,50.89
2018-08-12T07:49:49.000Z,50.76
2018-08-12T07:52:15.361Z,50.90
2018-08-12T07:54:41.735Z,51.06
2018-08-12T07:57:08.107Z,51.16
2018-08-12T07:59:34.498Z,51.14
2018-08-12T08:02:00.961Z,51.24
2018-08-12T08:04:27.320Z,51.35
2018-08-12T08:06:53.705Z,51.19
2018-08-12T08:09:20.716Z,51.43
2018-08-12T08:11:47.129Z,51.50
2018-08-12T08:14:13.715Z,51.36
2018-08-12T08:16:40.073Z,51.43
2018-08-12T08:19:06.449Z,51.55
2018-08-12T08:21:32.804Z,51.44
2018-08-12T08:23:59.222Z,51.51
2018-08-12T08:26:25.597Z,51.43
2018-08-12T08:28:51.958Z,51.27
2018-08-12T08:31:18.375Z,51.29
2018-08-12T08:33:44.823Z,51.27
2018-08-12T08:36:11.147Z,51.23
2018-08-12T08:38:37.503Z,51.11
2018-08-12T08:41:03.860Z,50.95
2018-08-12T08:43:30.294Z,50.89
2018-08-12T08:45:56.689Z,50.82
2018-08-12T08:48:23.087Z,50.78
2018-08-12T08:50:49.482Z,50.76
2018-08-12T08:53:15.994Z,50.88
2018-08-12T08:55:42.469Z,50.68
2018-08-12T08:58:09.006Z,50.77
2018-08-12T09:00:35.374Z,50.69
2018-08-12T09:03:01.806Z,50.56
2018-08-12T09:05:28.211Z,50.39
2018-08-12T09:07:54.611Z,50.27
2018-08-12T09:10:21.006Z,50.25
2018-08-12T09:12:47.334Z,50.35
2018-08-12T09:15:13.734Z,50.25
2018-08-12T09:17:40.092Z,50.18
2018-08-12T09:20:06.483Z,50.23
2018-08-12T09:22:32.889Z,50.08
2018-08-12T09:24:59.301Z,50.06
2018-08-12T09:27:25.637Z,49.93
2018-08-12T09:29:52.005Z,50.08
2018-08-12T09:32:18.366Z,50.00
2018-08-12T09:34:44.677Z,49.86
2018-08-12T09:37:11.041Z,49.70
2018-08-12T09:39:37.402Z,49.78
2018-08-12T09:42:03.770Z,49.83
2018-08-12T09:44:30.160Z,49.69
2018-08-12T09:46:56.583Z,49.69
2018-08-12T09:49:22.951Z,49.76
2018-08-12T09:51:49.479Z,49.65
2018-08-12T09:54:15.671Z,49.50
2018-08-12T09:56:42.033Z,49.38
2018-08-12T09:59:08.408Z,49.50
2018-08-12T10:01:34.768Z,49.55
2018-08-12T10:04:01.108Z,49.60
2018-08-12T10:06:27.503Z,49.41
2018-08-12T10:08:53.869Z,49.48
2018-08-12T10:11:20.243Z,49.42
2018-08-12T10:13:46.589Z,49.53
2018-08-12T10:16:13.007Z,49.40
2018-08-12T10:18:39.340Z,49.31
2018-08-12T10:21:05.761Z,49.25
2018-08-12T10:23:32.078Z,49.25
2018-08-12T10:25:58.410Z,49.14
2018-08-12T10:28:24.811Z,49.24
2018-08-12T10:30:51.176Z,49.13
2018-08-12T10:33:17.520Z,49.14
2018-08-12T10:35:43.906Z,49.20
2018-08-12T10:38:10.301Z,49.09
2018-08-12T10:40:36.651Z,49.09
2018-08-12T10:43:03.035Z,49.13
2018-08-12T10:45:29.388Z,49.17
2018-08-12T10:47:55.812Z,49.14
2018-08-12T10:50:22.201Z,49.15
2018-08-12T10:52:48.740Z,49.23
2018-08-12T10:55:15.094Z,49.03
2018-08-12T10:57:41.477Z,49.28
2018-08-12T11:00:07.829Z,49.14
2018-08-12T11:02:34.184Z,49.10
2018-08-12T11:05:00.580Z,49.17
2018-08-12T11:07:26.972Z,49.11
2018-08-12T11:09:53.319Z,49.06
2018-08-12T11:12:19.742Z,49.05
2018-08-12T11:14:46.041Z,49.06
2018-08-12T11:17:12.434Z,49.05
2018-08-12T11:19:38.789Z,49.02
2018-08-12T11:22:05.153Z,48.92
2018-08-12T11:24:31.864Z,48.83
2018-08-12T11:26:58.314Z,48.91
2018-08-12T11:29:24.803Z,48.93
2018-08-12T11:31:51.179Z,48.90
2018-08-12T11:34:17.508Z,48.96
2018-08-12T11:36:43.886Z,48.98
2018-08-12T11:39:10.242Z,48.95
2018-08-12T11:41:36.652Z,49.03
2018-08-12T11:44:03.016Z,49.23
2018-08-12T11:46:29.367Z,49.08
2018-08-12T11:48:55.682Z,49.05
2018-08-12T11:51:22.024Z,49.18
2018-08-12T11:53:48.431Z,49.21
2018-08-12T11:56:14.847Z,49.13
2018-08-12T11:58:41.229Z,49.21
2018-08-12T12:01:08.998Z,49.11
2018-08-12T12:03:35.330Z,49.15
2018-08-12T12:06:01.802Z,49.11
2018-08-12T12:08:28.179Z,49.27
2018-08-12T12:10:54.538Z,49.09
2018-08-12T12:13:20.943Z,49.02
2018-08-12T12:15:48.281Z,49.04
2018-08-12T12:18:14.633Z,48.98
2018-08-12T12:20:41.049Z,49.04
2018-08-12T12:23:07.397Z,49.16
2018-08-12T12:25:33.747Z,48.92
2018-08-12T12:28:00.240Z,48.92
2018-08-12T12:30:26.629Z,49.02
2018-08-12T12:32:52.963Z,49.08
2018-08-12T12:35:19.300Z,48.88
2018-08-12T12:37:45.670Z,49.00
2018-08-12T12:40:12.042Z,49.03
2018-08-12T12:42:38.406Z,49.08
2018-08-12T12:45:04.755Z,48.99
2018-08-12T12:47:31.112Z,49.02
2018-08-12T12:49:57.463Z,49.02
2018-08-12T12:52:23.825Z,49.00
2018-08-12T12:54:50.178Z,48.92
2018-08-12T12:57:16.535Z,48.97
2018-08-12T12:59:42.882Z,48.84
2018-08-12T13:02:09.351Z,48.95
2018-08-12T13:04:35.747Z,48.94
2018-08-12T13:07:02.074Z,48.88
2018-08-12T13:09:28.452Z,48.96
2018-08-12T13:11:54.771Z,48.86
2018-08-12T13:14:21.144Z,48.78
2018-08-12T13:16:47.471Z,48.91
2018-08-12T13:19:13.919Z,48.86
2018-08-12T13:21:40.402Z,48.89
2018-08-12T13:24:06.803Z,48.75
2018-08-12T13:26:33.152Z,48.69
2018-08-12T13:28:59.495Z,48.60
2018-08-12T13:31:25.919Z,48.51
2018-08-12T13:33:52.246Z,48.60
2018-08-12T13:36:18.620Z,48.66
2018-08-12T13:38:44.991Z,48.68
2018-08-12T13:41:11.333Z,48.57
2018-08-12T13:43:37.907Z,48.62
2018-08-12T13:46:04.190Z,48.53
2018-08-12T13:48:30.519Z,48.54
2018-08-12T13:50:56.878Z,48.42
2018-08-12T13:53:23.218Z,48.61
2018-08-12T13:55:49.619Z,48.60
2018-08-12T13:58:16.186Z,48.60
2018-08-12T14:00:42.883Z,48.61
2018-08-12T14:03:09.285Z,48.67
2018-08-12T14:05:35.648Z,48.54
2018-08-12T14:08:01.988Z,48.76
2018-08-12T14:10:28.411Z,48.63
2018-08-12T14:12:54.771Z,48.66
2018-08-12T14:15:21.131Z,48.63
2018-08-12T14:17:47.434Z,48.61
2018-08-12T14:20:13.781Z,48.54
2018-08-12T14:22:40.177Z,48.54
2018-08-12T14:25:06.534Z,48.42
2018-08-12T14:27:32.901Z,48.26
2018-08-12T14:29:59.265Z,48.33
2018-08-12T14:32:25.659Z,48.24
2018-08-12T14:34:52.041Z,48.31
2018-08-12T14:37:18.385Z,48.28
2018-08-12T14:39:44.753Z,48.29
2018-08-12T14:42:11.152Z,48.21
2018-08-12T14:44:37.596Z,48.29
2018-08-12T14:47:04.066Z,48.17
2018-08-12T14:49:30.439Z,48.16
2018-08-12T14:51:56.772Z,48.21
2018-08-12T14:54:23.148Z,48.22
2018-08-12T14:56:49.497Z,48.11
2018-08-12T14:59:15.855Z,48.16
2018-08-12T15:01:42.386Z,48.27
2018-08-12T15:04:08.740Z,48.10
2018-08-12T15:06:35.141Z,48.12
2018-08-12T15:09:01.473Z,48.09
2018-08-12T15:11:27.814Z,48.15
2018-08-12T15:13:54.149Z,48.18
2018-08-12T15:16:20.656Z,48.11
2018-08-12T15:18:47.062Z,48.15
2018-08-12T15:21:13.426Z,48.14
2018-08-12T15:23:40.058Z,47.97
2018-08-12T15:26:06.453Z,48.08
2018-08-12T15:28:32.821Z,47.97
2018-08-12T15:30:59.191Z,47.95
2018-08-12T15:33:25.685Z,47.86
2018-08-12T15:35:52.107Z,47.87
2018-08-12T15:38:18.436Z,47.79
2018-08-12T15:40:44.858Z,47.76
2018-08-12T15:43:11.255Z,47.74
2018-08-12T15:45:37.686Z,47.79
2018-08-12T15:48:04.090Z,47.76
2018-08-12T15:50:30.605Z,47.83
2018-08-12T15:52:56.988Z,47.83
2018-08-12T15:55:23.350Z,47.77
2018-08-12T15:57:49.708Z,47.84
2018-08-12T16:00:16.040Z,47.73
2018-08-12T16:02:42.582Z,47.75
2018-08-12T16:05:08.948Z,47.85
2018-08-12T16:07:35.312Z,47.82
2018-08-12T16:10:01.647Z,47.78
2018-08-12T16:12:27.976Z,47.89
2018-08-12T16:14:54.306Z,47.70
2018-08-12T16:17:20.636Z,47.79
2018-08-12T16:19:46.993Z,47.83
2018-08-12T16:22:13.402Z,47.74
2018-08-12T16:24:39.772Z,47.78
2018-08-12T16:27:06.127Z,47.93
2018-08-12T16:29:32.552Z,47.84
2018-08-12T16:31:58.945Z,47.79
2018-08-12T16:34:25.372Z,47.94
2018-08-12T16:36:51.722Z,47.83
2018-08-12T16:39:18.078Z,47.73
2018-08-12T16:41:44.444Z,47.69
2018-08-12T16:44:10.820Z,47.77
2018-08-12T16:46:37.316Z,47.72
2018-08-12T16:49:03.697Z,47.82
2018-08-12T16:51:30.040Z,47.81
2018-08-12T16:53:56.377Z,47.89
2018-08-12T16:56:22.768Z,47.84
2018-08-12T16:58:49.127Z,47.89
2018-08-12T17:01:16.043Z,47.91
2018-08-12T17:03:42.582Z,47.98
2018-08-12T17:06:08.927Z,47.85
2018-08-12T17:08:35.285Z,47.93
2018-08-12T17:11:01.599Z,47.98
2018-08-12T17:13:28.103Z,48.15
2018-08-12T17:15:54.448Z,48.15
2018-08-12T17:18:20.831Z,48.24
2018-08-12T17:20:47.616Z,48.24
2018-08-12T17:23:13.978Z,48.25
2018-08-12T17:25:40.431Z,48.48
2018-08-12T17:28:06.769Z,48.44
2018-08-12T17:30:33.127Z,48.66
2018-08-12T17:32:59.510Z,48.70
2018-08-12T17:35:25.828Z,48.76
2018-08-12T17:37:52.204Z,48.83
2018-08-12T17:40:18.766Z,48.92
2018-08-12T17:42:45.305Z,48.95
2018-08-12T17:45:11.626Z,49.21
2018-08-12T17:47:37.976Z,49.15
2018-08-12T17:50:04.363Z,49.47
2018-08-12T17:52:30.745Z,49.54
2018-08-12T17:54:57.158Z,49.40
2018-08-12T17:57:23.519Z,49.56
2018-08-12T17:59:49.924Z,49.78
2018-08-12T18:02:16.285Z,49.77
2018-08-12T18:04:42.727Z,49.98
2018-08-12T18:07:09.117Z,50.05
2018-08-12T18:09:35.472Z,50.25
2018-08-12T18:12:01.810Z,50.05
2018-08-12T18:14:28.156Z,50.08
2018-08-12T18:16:54.499Z,50.26
2018-08-12T18:19:20.894Z,50.36
2018-08-12T18:21:47.368Z,50.57
2018-08-12T18:24:13.758Z,50.40
2018-08-12T18:26:40.243Z,50.53
2018-08-12T18:29:06.528Z,50.70
2018-08-12T18:31:33.043Z,50.73
2018-08-12T18:33:59.469Z,50.98
2018-08-12T18:36:25.806Z,50.91
2018-08-12T18:38:52.139Z,50.91
2018-08-12T18:41:18.480Z,51.07
2018-08-12T18:43:44.863Z,50.88
2018-08-12T18:46:11.252Z,51.09
2018-08-12T18:48:37.596Z,51.23
2018-08-12T18:51:03.972Z,51.19
2018-08-12T18:53:30.314Z,51.24
2018-08-12T18:55:56.695Z,51.09
2018-08-12T18:58:23.085Z,51.27
2018-08-12T19:00:49.462Z,51.45
2018-08-12T19:03:15.939Z,51.42
2018-08-12T19:05:42.482Z,51.47
2018-08-12T19:08:08.822Z,51.72
2018-08-12T19:10:35.160Z,51.98
2018-08-12T19:13:01.499Z,51.77
2018-08-12T19:15:27.857Z,51.73
2018-08-12T19:17:54.202Z,52.17
2018-08-12T19:20:20.786Z,52.03
2018-08-12T19:22:47.103Z,52.04
2018-08-12T19:25:13.464Z,52.20
2018-08-12T19:27:39.873Z,52.06
2018-08-12T19:30:06.299Z,52.18
2018-08-12T19:32:32.620Z,52.04
2018-08-12T19:34:58.965Z,52.31
2018-08-12T19:37:25.335Z,52.30
2018-08-12T19:39:51.724Z,52.24
2018-08-12T19:42:18.114Z,52.19
2018-08-12T19:44:44.444Z,52.37
2018-08-12T19:47:10.809Z,52.56
2018-08-12T19:49:37.464Z,52.55
2018-08-12T19:52:03.814Z,52.55
2018-08-12T19:54:30.136Z,52.39
2018-08-12T19:56:56.455Z,52.51
2018-08-12T19:59:22.791Z,52.91
2018-08-12T20:01:49.206Z,52.72
2018-08-12T20:04:15.557Z,52.88
2018-08-12T20:06:41.958Z,52.91
2018-08-12T20:09:08.288Z,52.98
2018-08-12T20:11:34.606Z,52.87
2018-08-12T20:14:00.948Z,53.02
2018-08-12T20:16:27.329Z,53.07
2018-08-12T20:18:53.735Z,53.21
2018-08-12T20:21:20.147Z,53.02
2018-08-12T20:23:46.499Z,53.18
2018-08-12T20:26:12.842Z,53.14
2018-08-12T20:28:39.178Z,53.47
2018-08-12T20:31:05.505Z,53.42
2018-08-12T20:33:31.832Z,53.27
2018-08-12T20:35:58.367Z,53.43
2018-08-12T20:38:24.791Z,53.33
2018-08-12T20:40:51.178Z,53.30
2018-08-12T20:43:17.516Z,53.35
2018-08-12T20:45:43.851Z,53.39
2018-08-12T20:48:10.185Z,53.27
2018-08-12T20:50:36.557Z,53.34
2018-08-12T20:53:02.881Z,53.35
2018-08-12T20:55:29.214Z,53.20
2018-08-12T20:57:55.574Z,53.25
2018-08-12T21:00:21.913Z,53.16
2018-08-12T21:02:48.262Z,53.14
2018-08-12T21:05:14.613Z,53.14
2018-08-12T21:07:41.043Z,53.14
2018-08-12T21:10:07.412Z,53.24
2018-08-12T21:12:33.768Z,53.17
2018-08-12T21:15:00.127Z,53.27
2018-08-12T21:17:26.466Z,53.21
2018-08-12T21:19:52.824Z,53.28
2018-08-12T21:22:19.179Z,53.11
2018-08-12T21:24:45.515Z,52.98
2018-08-12T21:27:12.021Z,53.10
2018-08-12T21:29:38.368Z,53.04
2018-08-12T21:32:04.718Z,53.02
2018-08-12T21:34:31.071Z,52.94
2018-08-12T21:36:57.405Z,52.96
2018-08-12T21:39:23.797Z,53.00
2018-08-12T21:41:50.253Z,52.93
2018-08-12T21:44:16.598Z,53.07
2018-08-12T21:46:43.079Z,53.04
2018-08-12T21:49:09.428Z,52.91
2018-08-12T21:51:35.846Z,53.07
2018-08-12T21:54:02.170Z,52.95
2018-08-12T21:56:28.663Z,52.92
2018-08-12T21:58:55.020Z,52.98
2018-08-12T22:01:21.376Z,52.92
2018-08-12T22:03:47.758Z,52.82
2018-08-12T22:06:14.078Z,52.84
2018-08-12T22:08:40.420Z,52.93
2018-08-12T22:11:06.758Z,52.79
2018-08-12T22:13:33.165Z,52.68
2018-08-12T22:15:59.494Z,52.78
2018-08-12T22:18:25.880Z,52.74
2018-08-12T22:20:52.322Z,52.69
2018-08-12T22:23:18.848Z,52.65
2018-08-12T22:25:45.355Z,52.71
2018-08-12T22:28:11.698Z,52.72
2018-08-12T22:30:38.035Z,52.65
2018-08-12T22:33:04.363Z,52.65
2018-08-12T22:35:30.721Z,52.80
2018-08-12T22:37:57.086Z,52.72
2018-08-12T22:40:23.415Z,52.69
2018-08-12T22:42:49.879Z,52.65
2018-08-12T22:45:16.343Z,52.68
2018-08-12T22:47:42.727Z,52.60
2018-08-12T22:50:09.105Z,52.69
2018-08-12T22:52:35.495Z,52.59
2018-08-12T22:55:01.836Z,52.59
2018-08-12T22:57:28.171Z,52.63
2018-08-12T22:59:54.525Z,52.50
2018-08-12T23:02:20.891Z,52.48
2018-08-12T23:04:47.202Z,52.44
2018-08-12T23:07:13.539Z,52.46
2018-08-12T23:09:39.862Z,52.40
2018-08-12T23:12:06.250Z,52.40
2018-08-12T23:14:32.611Z,52.33
2018-08-12T23:16:58.950Z,52.27
2018-08-12T23:19:25.303Z,52.25
2018-08-12T23:21:51.611Z,52.39
2018-08-12T23:24:17.944Z,52.27
2018-08-12T23:26:44.373Z,52.33
2018-08-12T23:29:10.707Z,52.27
2018-08-12T23:31:37.047Z,52.40
2018-08-12T23:34:03.366Z,52.35
2018-08-12T23:36:29.697Z,52.37
2018-08-12T23:38:56.124Z,52.40
2018-08-12T23:41:22.486Z,52.32
2018-08-12T23:43:48.835Z,52.36
2018-08-12T23:46:15.183Z,52.33
2018-08-12T23:48:41.535Z,52.29
2018-08-12T23:51:07.910Z,52.30
2018-08-12T23:53:34.256Z,52.31
2018-08-12T23:56:00.591Z,52.35
2018-08-12T23:58:26.971Z,52.20
